Flight Track Log - Related Links

Times and Time Zones

All times are in EDT time to prevent confusion due to time zone crossing. See the UAL1444 flight status page for this flight to view local times or setup timezone preferences in your user account.

Time Position Orientation Groundspeed Altitude Reporting Facility
EDT Latitude Longitude Course Direction KTS MPH feet Rate Location/Type
Sat 07:36:31 AM 39.8833 -75.2167 311° West 150 173 600  Level Philadelphia TRACON
Sat 07:37:31 AM 39.9000 -75.1667 67° East 204 235 2,900 2,600 Climbing Philadelphia TRACON
Sat 07:38:31 AM 39.9500 -75.1167 37° Northeast 258 297 5,800 3,350 Climbing Philadelphia TRACON
Sat 07:39:00 AM 40.1372 -75.4872 323° Northwest  Level FlightAware Approximate
Sat 07:39:31 AM 40.0167 -75.1500 339° North 260 299 9,600  Level Philadelphia TRACON
Sat 07:40:00 AM 40.2281 -75.5671 311° West  Level FlightAware Approximate
Sat 07:40:31 AM 40.0833 -75.2000 330° Northwest 337 388 10,000  Level Philadelphia TRACON
Sat 07:41:00 AM 40.3025 -75.6787 311° West  Level FlightAware Approximate
Sat 07:42:04 AM 40.1428 -75.3678 295° West 355 409 10,000  Level New York Center
Sat 07:43:05 AM 40.1844 -75.4711 298° West 343 395 12,000 1,835 Climbing New York Center
Sat 07:44:05 AM 40.2344 -75.5781 302° West 343 395 13,700 2,400 Climbing New York Center
Sat 07:45:05 AM 40.2911 -75.6664 310° West 343 395 16,800 1,916 Climbing New York Center
Sat 07:46:04 AM 40.3578 -75.7664 311° West 356 410 17,500 1,500 Climbing New York Center
Sat 07:47:05 AM 40.4264 -75.8694 311° West 367 422 19,800 2,700 Climbing New York Center
Sat 07:48:04 AM 40.4564 -75.9972 287° West 367 422 22,900 2,750 Climbing New York Center
Sat 07:49:05 AM 40.4772 -76.1325 281° West 367 422 25,300 2,033 Climbing New York Center
Sat 07:50:05 AM 40.5000 -76.2733 282° West 385 443 27,000 1,916 Climbing New York Center
Sat 07:51:04 AM 40.5225 -76.4172 282° West 395 455 29,100 2,269 Climbing New York Center
Sat 07:52:04 AM 40.5447 -76.5583 282° West 395 455 31,500 2,200 Climbing New York Center
Sat 07:53:04 AM 40.5608 -76.6964 279° West 395 455 33,500 2,033 Climbing New York Center
Sat 07:54:05 AM 40.5728 -76.8314 277° West 387 445 35,600 1,230 Climbing New York Center
Sat 07:55:06 AM 40.5847 -76.9608 277° West 376 433 36,000 198 Climbing New York Center
Sat 07:56:06 AM 40.5947 -77.0903 276° West 365 420 36,000  Level New York Center
Sat 07:57:06 AM 40.6064 -77.2197 277° West 365 420 36,000  Level New York Center
Sat 07:58:04 AM 40.6197 -77.3578 277° West 360 414 36,000  Level New York Center
Sat 07:59:04 AM 40.6311 -77.4875 277° West 355 409 36,000  Level New York Center
Sat 08:00:05 AM 40.6403 -77.6169 275° West 355 409 36,000  Level New York Center
Sat 08:02:21 AM 40.6631 -77.9033 276° West 351 404 36,000  Level Cleveland Center
Sat 08:03:21 AM 40.6744 -78.0342 277° West 356 410 36,000  Level Cleveland Center
Sat 08:04:21 AM 40.6836 -78.1653 275° West 361 415 36,000  Level Cleveland Center
Sat 08:05:21 AM 40.6925 -78.2964 275° West 366 421 36,000  Level Cleveland Center
Sat 08:06:21 AM 40.7036 -78.4303 276° West 366 421 36,000  Level Cleveland Center
Sat 08:07:21 AM 40.7142 -78.5614 276° West 366 421 36,000  Level Cleveland Center
Sat 08:08:21 AM 40.7228 -78.6956 275° West 366 421 36,000  Level Cleveland Center
Sat 08:09:21 AM 40.7333 -78.8294 276° West 366 421 36,000  Level Cleveland Center
Sat 08:10:21 AM 40.7478 -78.9717 278° West 366 421 36,000  Level Cleveland Center
Sat 08:11:21 AM 40.7558 -79.1031 275° West 366 421 36,000  Level Cleveland Center
Sat 08:12:21 AM 40.7639 -79.2369 275° West 366 421 36,000  Level Cleveland Center
Sat 08:13:21 AM 40.7717 -79.3686 275° West 366 421 36,000  Level Cleveland Center
Sat 08:14:21 AM 40.7811 -79.5000 275° West 366 421 36,000  Level Cleveland Center
Sat 08:15:21 AM 40.7906 -79.6206 276° West 366 421 36,000  Level Cleveland Center
Sat 08:16:21 AM 40.7981 -79.7492 274° West 366 421 36,000  Level Cleveland Center
Sat 08:17:21 AM 40.8050 -79.8808 274° West 366 421 36,000  Level Cleveland Center
Sat 08:18:21 AM 40.8119 -80.0153 274° West 366 421 36,000  Level Cleveland Center
Sat 08:19:21 AM 40.8211 -80.1497 275° West 366 421 36,000  Level Cleveland Center
Sat 08:20:21 AM 40.8278 -80.2814 274° West 366 421 36,000  Level Cleveland Center
Sat 08:21:21 AM 40.8364 -80.4267 275° West 366 421 36,000  Level Cleveland Center
Sat 08:22:21 AM 40.8425 -80.5639 273° West 366 421 36,000  Level Cleveland Center
Sat 08:23:21 AM 40.8489 -80.6983 274° West 366 421 36,000  Level Cleveland Center
Sat 08:24:21 AM 40.8569 -80.8164 275° West 366 421 36,000  Level Cleveland Center
Sat 08:25:21 AM 40.8628 -80.9456 273° West 366 421 36,000  Level Cleveland Center
Sat 08:26:21 AM 40.8664 -81.0939 272° West 366 421 36,000  Level Cleveland Center
Sat 08:27:21 AM 40.8722 -81.2256 273° West 361 415 36,000  Level Cleveland Center
Sat 08:28:21 AM 40.8775 -81.3464 273° West 361 415 36,000  Level Cleveland Center
Sat 08:29:21 AM 40.8850 -81.4783 274° West 367 422 36,000  Level Cleveland Center
Sat 08:30:21 AM 40.8881 -81.6103 272° West 367 422 36,000  Level Cleveland Center
Sat 08:31:21 AM 40.8931 -81.7422 273° West 367 422 36,000  Level Cleveland Center
Sat 08:32:21 AM 40.8978 -81.8742 273° West 367 422 36,000  Level Cleveland Center
Sat 08:33:21 AM 40.9044 -82.0200 274° West 367 422 36,000  Level Cleveland Center
Sat 08:34:21 AM 40.9089 -82.1519 273° West 367 422 36,000  Level Cleveland Center
Sat 08:35:21 AM 40.9133 -82.2867 273° West 367 422 36,000  Level Cleveland Center
Sat 08:36:21 AM 40.9072 -82.4156 266° West 361 415 36,000  Level Cleveland Center
Sat 08:37:21 AM 40.9133 -82.5478 274° West 366 421 36,000  Level Cleveland Center
Sat 08:38:21 AM 40.9214 -82.6825 275° West 366 421 36,000  Level Cleveland Center
Sat 08:39:21 AM 40.9292 -82.8147 274° West 366 421 36,000  Level Cleveland Center
Sat 08:40:21 AM 40.9372 -82.9278 275° West 366 421 36,000  Level Cleveland Center
Sat 08:41:21 AM 40.9386 -83.0625 271° West 366 421 36,000 -50 Level Cleveland Center
Sat 08:42:21 AM 40.9442 -83.1892 273° West 366 421 35,900 -50 Descending Cleveland Center
Sat 08:43:21 AM 40.9494 -83.3186 273° West 360 414 35,900  Level Cleveland Center
Sat 08:44:21 AM 40.9525 -83.4453 272° West 360 414 35,900  Level Cleveland Center
Sat 08:45:21 AM 40.9556 -83.5744 272° West 360 414 35,900  Level Cleveland Center
Sat 08:46:21 AM 40.9564 -83.7039 271° West 355 409 35,900  Level Cleveland Center
Sat 08:47:21 AM 40.9606 -83.8444 272° West 355 409 35,900 50 Level Cleveland Center
Sat 08:48:21 AM 40.9611 -83.9681 270° West 349 402 36,000 50 Climbing Cleveland Center
Sat 08:49:21 AM 40.9658 -84.0950 273° West 349 402 36,000  Level Cleveland Center
Sat 08:50:17 AM 40.9658 -84.1947 270° West 346 398 36,000  Level Chicago Center
Sat 08:51:19 AM 40.9686 -84.3494 271° West 349 402 36,000  Level Chicago Center
Sat 08:52:20 AM 40.9706 -84.4767 271° West 346 398 36,000  Level Chicago Center
Sat 08:53:22 AM 40.9717 -84.6053 271° West 349 402 36,000  Level Chicago Center
Sat 08:54:23 AM 40.9739 -84.7342 271° West 350 403 36,000  Level Chicago Center
Sat 08:55:25 AM 40.9756 -84.8619 271° West 349 402 36,000  Level Chicago Center
Sat 08:56:26 AM 40.9764 -84.9914 271° West 351 404 36,000  Level Chicago Center
Sat 08:57:28 AM 40.9775 -85.1186 271° West 347 399 36,000  Level Chicago Center
Sat 08:58:29 AM 40.9814 -85.2453 272° West 345 397 36,000  Level Chicago Center
Sat 08:59:31 AM 40.9897 -85.3728 275° West 347 399 36,000  Level Chicago Center
Sat 09:00:32 AM 40.9964 -85.4992 274° West 344 396 36,000  Level Chicago Center
Sat 09:01:34 AM 41.0056 -85.6508 275° West 344 396 36,000  Level Chicago Center
Sat 09:02:35 AM 41.0128 -85.7764 274° West 343 395 36,000  Level Chicago Center
Sat 09:03:37 AM 41.0197 -85.9039 274° West 346 398 36,000  Level Chicago Center
Sat 09:04:38 AM 41.0258 -86.0308 274° West 346 398 36,000  Level Chicago Center
Sat 09:05:40 AM 41.0325 -86.1581 274° West 345 397 36,000  Level Chicago Center
Sat 09:06:41 AM 41.0394 -86.2856 274° West 347 399 36,000  Level Chicago Center
Sat 09:07:43 AM 41.0450 -86.4142 273° West 349 402 36,000  Level Chicago Center
Sat 09:08:44 AM 41.0525 -86.5422 274° West 349 402 36,000  Level Chicago Center
Sat 09:09:46 AM 41.0578 -86.6681 273° West 343 395 36,000  Level Chicago Center
Sat 09:10:47 AM 41.0658 -86.8106 274° West 344 396 36,000  Level Chicago Center
Sat 09:11:49 AM 41.0708 -86.9361 273° West 343 395 36,000  Level Chicago Center
Sat 09:12:50 AM 41.0767 -87.0614 274° West 343 395 36,000  Level Chicago Center
Sat 09:13:52 AM 41.0822 -87.1858 273° West 338 389 36,000  Level Chicago Center
Sat 09:14:54 AM 41.0886 -87.3353 273° West 339 390 36,000  Level Chicago Center
Sat 09:15:55 AM 41.0933 -87.4594 273° West 339 390 36,000  Level Chicago Center
Sat 09:16:56 AM 41.0972 -87.5842 272° West 339 390 36,000  Level Chicago Center
Sat 09:17:57 AM 41.1031 -87.7097 274° West 340 391 36,000  Level Chicago Center
Sat 09:18:59 AM 41.1072 -87.8361 273° West 343 395 36,000  Level Chicago Center
Sat 09:20:00 AM 41.1119 -87.9619 273° West 342 394 36,000  Level Chicago Center
Sat 09:21:02 AM 41.1172 -88.0900 273° West 346 398 36,000  Level Chicago Center
Sat 09:22:03 AM 41.1211 -88.2178 272° West 346 398 36,000  Level Chicago Center
Sat 09:23:05 AM 41.1258 -88.3458 273° West 346 398 36,000  Level Chicago Center
Sat 09:24:06 AM 41.1303 -88.5014 272° West 351 404 36,000  Level Chicago Center
Sat 09:25:08 AM 41.1344 -88.6294 273° West 350 403 36,000  Level Chicago Center
Sat 09:26:09 AM 41.1381 -88.7592 272° West 352 405 36,000  Level Chicago Center
Sat 09:27:10 AM 41.1433 -88.8903 273° West 357 411 36,000  Level Chicago Center
Sat 09:28:12 AM 41.1475 -89.0203 272° West 355 409 36,000  Level Chicago Center
Sat 09:29:13 AM 41.1508 -89.1500 272° West 353 406 36,000  Level Chicago Center
Sat 09:30:15 AM 41.1539 -89.2942 272° West 353 406 36,000  Level Chicago Center
Sat 09:31:16 AM 41.1567 -89.4217 272° West 348 400 36,000  Level Chicago Center
Sat 09:32:18 AM 41.1594 -89.5508 272° West 352 405 36,000  Level Chicago Center
Sat 09:33:19 AM 41.1603 -89.6811 271° West 354 407 36,000  Level Chicago Center
Sat 09:34:21 AM 41.1600 -89.8122 270° West 358 412 36,000  Level Chicago Center
Sat 09:35:22 AM 41.1597 -89.9422 270° West 355 409 36,000  Level Chicago Center
Sat 09:36:24 AM 41.1589 -90.1006 270° West 359 413 36,000  Level Chicago Center
Sat 09:37:25 AM 41.1581 -90.2322 270° West 359 413 36,000  Level Chicago Center
Sat 09:38:27 AM 41.1556 -90.3678 269° West 368 423 36,000  Level Chicago Center
Sat 09:39:28 AM 41.1550 -90.4997 270° West 362 417 36,000  Level Chicago Center
Sat 09:40:30 AM 41.1531 -90.6336 269° West 364 419 36,000  Level Chicago Center
Sat 09:41:32 AM 41.1514 -90.7689 269° West 367 422 36,000  Level Chicago Center
Sat 09:42:33 AM 41.1497 -90.9044 269° West 367 422 36,000  Level Chicago Center
Sat 09:43:35 AM 41.1478 -91.0408 269° West 372 428 36,000  Level Chicago Center
Sat 09:44:36 AM 41.1458 -91.2067 269° West 375 432 36,000  Level Chicago Center
Sat 09:45:38 AM 41.1428 -91.3461 268° West 379 436 36,000  Level Chicago Center
Sat 09:46:39 AM 41.1411 -91.4867 269° West 381 438 36,000  Level Chicago Center
Sat 09:47:41 AM 41.1378 -91.6278 268° West 382 440 36,000  Level Chicago Center
Sat 09:48:43 AM 41.1350 -91.7719 269° West 387 445 36,000  Level Chicago Center
Sat 09:49:44 AM 41.1319 -91.9136 268° West 387 445 36,000  Level Chicago Center
Sat 09:50:46 AM 41.1289 -92.0567 268° West 391 450 36,000  Level Chicago Center
Sat 09:51:47 AM 41.1247 -92.2289 268° West 394 453 36,000  Level Chicago Center
Sat 09:52:49 AM 41.1211 -92.3722 268° West 395 455 36,000  Level Chicago Center
Sat 09:53:51 AM 41.1161 -92.5172 267° West 398 458 36,000  Level Chicago Center
Sat 09:54:52 AM 41.1125 -92.6628 268° West 399 459 36,000  Level Chicago Center
Sat 09:55:54 AM 41.1081 -92.8078 268° West 398 458 36,000  Level Chicago Center
Sat 09:56:55 AM 41.1036 -92.9525 268° West 399 459 36,000  Level Chicago Center
Sat 09:57:20 AM 41.1011 -93.0422 268° West 398 458 36,000  Level Minneapolis Center
Sat 09:58:21 AM 41.0967 -93.1864 268° West 397 457 36,000  Level Minneapolis Center
Sat 09:59:22 AM 41.0939 -93.3331 269° West 400 460 36,000  Level Minneapolis Center
Sat 10:00:24 AM 41.0856 -93.4886 266° West 412 474 36,000  Level Minneapolis Center
Sat 10:01:25 AM 41.0794 -93.6133 266° West 420 483 36,000  Level Minneapolis Center
Sat 10:02:26 AM 41.0719 -93.7964 267° West 422 486 36,000  Level Minneapolis Center
Sat 10:03:27 AM 41.0683 -93.9478 268° West 420 483 36,000  Level Minneapolis Center
Sat 10:04:29 AM 41.0631 -94.1336 268° West 423 487 36,000  Level Minneapolis Center
Sat 10:05:30 AM 41.0561 -94.2900 267° West 428 493 36,000  Level Minneapolis Center
Sat 10:06:31 AM 41.0469 -94.4511 266° West 438 504 36,000  Level Minneapolis Center
Sat 10:07:33 AM 41.0403 -94.6194 267° West 438 504 36,000  Level Minneapolis Center
Sat 10:08:34 AM 41.0331 -94.7800 267° West 438 504 36,000  Level Minneapolis Center
Sat 10:09:35 AM 41.0247 -94.9422 266° West 440 506 36,000  Level Minneapolis Center
Sat 10:10:36 AM 41.0158 -95.1056 266° West 443 510 36,000  Level Minneapolis Center
Sat 10:11:38 AM 41.0083 -95.2678 267° West 442 509 36,000  Level Minneapolis Center
Sat 10:12:39 AM 41.0000 -95.4297 266° West 440 506 36,000  Level Minneapolis Center
Sat 10:13:40 AM 40.9908 -95.5911 266° West 438 504 36,000  Level Minneapolis Center
Sat 10:14:42 AM 40.9822 -95.7528 266° West 437 503 36,000  Level Minneapolis Center
Sat 10:15:43 AM 40.9725 -95.9158 266° West 439 505 36,000  Level Minneapolis Center
Sat 10:16:45 AM 40.9686 -96.0783 268° West 439 505 36,000  Level Minneapolis Center
Sat 10:17:46 AM 40.9672 -96.2394 269° West 437 503 36,000  Level Minneapolis Center
Sat 10:18:47 AM 40.9619 -96.4322 268° West 434 499 36,000  Level Minneapolis Center
Sat 10:19:49 AM 40.9589 -96.5928 269° West 434 499 36,000  Level Minneapolis Center
Sat 10:20:50 AM 40.9547 -96.7517 268° West 433 498 36,000  Level Minneapolis Center
Sat 10:21:52 AM 40.9497 -96.9103 268° West 432 497 36,000  Level Minneapolis Center
Sat 10:22:53 AM 40.9456 -97.0703 268° West 434 499 36,000  Level Minneapolis Center
Sat 10:23:54 AM 40.9403 -97.2308 268° West 436 502 36,000  Level Minneapolis Center
Sat 10:24:56 AM 40.9356 -97.3894 268° West 440 506 36,000  Level Minneapolis Center
Sat 10:25:57 AM 40.9308 -97.5503 268° West 438 504 36,000  Level Minneapolis Center
Sat 10:26:59 AM 40.9242 -97.7442 267° West 440 506 36,000  Level Minneapolis Center
Sat 10:28:00 AM 40.9181 -97.9058 267° West 440 506 36,000  Level Minneapolis Center
Sat 10:29:02 AM 40.9122 -98.0683 267° West 441 507 36,000  Level Minneapolis Center
Sat 10:30:03 AM 40.9067 -98.2314 267° West 442 509 36,000  Level Minneapolis Center
Sat 10:31:05 AM 40.9003 -98.3939 267° West 441 507 36,000  Level Minneapolis Center
Sat 10:32:07 AM 40.8931 -98.5556 267° West 440 506 36,000  Level Minneapolis Center
Sat 10:33:08 AM 40.8867 -98.7186 267° West 442 509 36,000  Level Minneapolis Center
Sat 10:34:10 AM 40.8792 -98.8814 267° West 444 511 36,000  Level Minneapolis Center
Sat 10:35:11 AM 40.8714 -99.0444 266° West 444 511 36,000  Level Minneapolis Center
Sat 10:36:23 AM 40.8625 -99.2478 267° West 443 510 36,000  Level Denver Center
Sat 10:37:25 AM 40.8544 -99.4108 266° West 442 509 36,000  Level Denver Center
Sat 10:38:27 AM 40.8461 -99.5739 266° West 443 510 36,000  Level Denver Center
Sat 10:39:29 AM 40.8383 -99.7353 266° West 441 507 36,000  Level Denver Center
Sat 10:40:30 AM 40.8283 -99.9153 266° West 444 511 36,000  Level Denver Center
Sat 10:41:32 AM 40.8186 -100.0958 266° West 442 509 36,000  Level Denver Center
Sat 10:42:34 AM 40.8094 -100.2511 266° West 444 511 36,000  Level Denver Center
Sat 10:43:36 AM 40.8008 -100.4069 266° West 444 511 36,000  Level Denver Center
Sat 10:44:38 AM 40.7872 -100.5881 264° West 442 509 36,000  Level Denver Center
Sat 10:45:40 AM 40.7597 -100.7397 257° West 450 518 36,000  Level Denver Center
Sat 10:46:42 AM 40.7331 -100.9044 258° West 450 518 36,000  Level Denver Center
Sat 10:47:44 AM 40.7031 -101.0839 258° West 446 513 36,000  Level Denver Center
Sat 10:48:46 AM 40.6781 -101.2369 258° West 447 514 36,000  Level Denver Center
Sat 10:49:48 AM 40.6467 -101.4147 257° West 446 513 36,000  Level Denver Center
Sat 10:50:49 AM 40.6206 -101.5678 257° West 448 516 36,000  Level Denver Center
Sat 10:51:51 AM 40.5894 -101.7444 257° West 446 513 36,000  Level Denver Center
Sat 10:52:53 AM 40.5628 -101.8956 257° West 445 512 36,000  Level Denver Center
Sat 10:53:55 AM 40.5311 -102.0725 257° West 446 513 36,000  Level Denver Center
Sat 10:54:57 AM 40.5047 -102.2244 257° West 446 513 36,000  Level Denver Center
Sat 10:55:59 AM 40.4731 -102.4000 257° West 443 510 36,000  Level Denver Center
Sat 10:57:01 AM 40.4453 -102.5522 257° West 447 514 36,000 -242 Level Denver Center
Sat 10:58:03 AM 40.4167 -102.7097 257° West 445 512 35,500 -1,403 Descending Denver Center
Sat 10:59:05 AM 40.3853 -102.8747 256° West 461 531 33,100 -2,758 Descending Denver Center
Sat 11:00:07 AM 40.3556 -103.0408 257° West 463 533 29,800 -3,048 Descending Denver Center
Sat 11:01:09 AM 40.3197 -103.2314 256° West 458 527 26,800 -2,710 Descending Denver Center
Sat 11:02:11 AM 40.2897 -103.3872 256° West 439 505 24,200 -2,468 Descending Denver Center
Sat 11:03:13 AM 40.2603 -103.5392 256° West 429 494 21,700 -2,371 Descending Denver Center
Sat 11:04:15 AM 40.2331 -103.6850 256° West 410 472 19,300 -1,645 Descending Denver Center
Sat 11:05:17 AM 40.2069 -103.8281 257° West 373 429 18,300 -1,065 Descending Denver Center
Sat 11:06:19 AM 40.2089 -103.9417 271° West 319 367 17,100 -1,452 Descending Denver Center
Sat 11:07:21 AM 40.2214 -104.0644 278° West 315 362 15,300 -1,645 Descending Denver Center
Sat 11:08:23 AM 40.2303 -104.1731 276° West 305 351 13,700 -1,548 Descending Denver Center
Sat 11:09:25 AM 40.2403 -104.2878 277° West 297 342 12,100 -1,355 Descending Denver Center
Sat 11:10:27 AM 40.2006 -104.3767 240° Southwest 287 330 10,900 -1,452 Descending Denver Center
Sat 11:11:29 AM 40.1519 -104.4739 237° Southwest 295 339 9,100 -1,113 Descending Denver Center
Sat 11:12:31 AM 40.1081 -104.5581 236° Southwest 284 327 8,600 -383 Descending Denver Center
Sat 11:13:03 AM 40.0833 -104.6000 232° Southwest 249 287 8,500 -188 Descending Denver TRACON

Login

Don't have an account? Register now (free) for customized features, flight alerts, and more!